AirNav   Air Wisconsin Up To $57,000 Bonus
 
 471 users online  

63CL G3 Ranch Airport
Capay, California, USA

GOING TO CAPAY?


FAA INFORMATION EFFECTIVE 07 NOVEMBER 2019

Location

FAA Identifier: 63CL
Lat/Long: 38-42-59.6520N 122-08-18.9040W
38-42.994200N 122-08.315067W
38.7165700,-122.1385844
(estimated)
Elevation: 360 ft. / 110 m (estimated)
Variation: 16E (1985)
From city: 4 miles W of CAPAY, CA
Time zone: UTC -8 (UTC -7 during Daylight Saving Time)
Zip code: 95607

Airport Operations

Airport use: Private use. Permission required prior to landing
Activation date: 08/1970
Control tower: no
ARTCC: OAKLAND CENTER
FSS: RANCHO MURIETA FLIGHT SERVICE STATION
Attendance: UNATNDD
Wind indicator: no
Segmented circle: no

Airport Communications

WX AWOS-3 at DWA (16 nm SE): 125.775 (530-750-2759)
WX AWOS-3 at EDU (20 nm SE): 119.025 (530-754-6839)

Nearby radio navigation aids

VOR radial/distance  VOR name  Freq  Var
ILAr176/21.9WILLIAMS VORTAC114.4018E
SACr284/32.0SACRAMENTO VORTAC115.2017E
STSr052/33.9SANTA ROSA VOR/DME113.0016E
SGDr002/34.1SCAGGS ISLAND VORTAC112.1017E
MCCr258/34.5MC CLELLAN VOR/DME109.2017E
MYVr213/35.0MARYSVILLE VOR/DME110.8016E

Airport Services

Airframe service: NONE
Powerplant service: NONE

Runway Information

Runway NW/SE

Dimensions: 2800 x 110 ft. / 853 x 34 m
Surface: turf
RUNWAY NW  RUNWAY SE
Traffic pattern: leftleft
Obstructions: plinepline, 60 ft. from runway

Airport Ownership and Management from official FAA records

Ownership: Privately-owned
Owner: C. M. GORDON
P. O. BOX 125
BROOKS, CA 95606
Phone (530) 796-3188
Manager: BOB GORDON
P. O. BOX 113
BROOKS, CA 95606
Phone (530) 908-9241

Additional Remarks

FOR CD CTC OAKLAND ARTCC AT 510-745-3380.

Instrument Procedures

There are no published instrument procedures at 63CL.

Some nearby airports with instrument procedures:

O41 - Watts-Woodland Airport (13 nm E)
KDWA - Yolo County Airport (16 nm SE)
KEDU - University Airport (20 nm SE)
KVCB - Nut Tree Airport (22 nm S)
KSMF - Sacramento International Airport (26 nm E)
 
Loc | Ops | Rwys | IFR | FBO | Links
Com | Nav | Svcs | Stats | Notes

Sonoma Jet Center
 
Area around 63CL (G3 Ranch Airport)
 
Road maps at: MapQuest Bing Google
 
Aerial photo
No photo
 
Sectional chart

 
Airport distance calculator
Flying to G3 Ranch Airport? Find the distance to fly.

From to 63CL

Sunrise and sunset
Times for 17-Nov-2019
 Local
(UTC-8)
 Zulu
(UTC)
Morning civil twilight06:2614:26
Sunrise06:5414:54
Sunset16:5300:53
Evening civil twilight17:2201:22

Current date and time
Zulu (UTC)  17-Nov-2019 11:04:00
Local (UTC-8)  17-Nov-2019 03:04:00
 
METAR
KEDU 
20nm SE 
171055Z AUTO 00000KT 10SM CLR 07/05 A3012 RMK AO1
KVCB 
22nm SE 
171053Z AUTO 25003KT 10SM CLR 08/06 A3012 RMK AO2 SLP199 T00780061
KSMF 
25nm E 
171053Z 36003KT 10SM CLR 07/07 A3011 RMK AO2 SLP194 T00720067 $
KSUU 
29nm S 
170958Z AUTO 34007KT 10SM CLR 07/05 A3011 RMK AO2 SLP203 T00680045 $
KAPC 
32nm S 
171054Z AUTO 02003KT 10SM CLR 07/07 A3010 RMK AO2 SLP185 T00670067 $
KSAC 
33nm SE 
171053Z AUTO 00000KT 5SM BR CLR 08/07 A3011 RMK AO2 SLP196 T00830067 $
KSTS 
34nm W 
707-573-8393
171053Z AUTO 00000KT 8SM CLR 07/06 A3011 RMK AO2 SLP188 T00670056
KMCC 
35nm E 
171055Z AUTO 00000KT 8SM CLR 09/08 A3013 RMK AO2
KO69 
35nm SW 
171055Z AUTO 00000KT 8SM CLR 06/06 A3012 RMK A01
KMYV 
35nm NE 
171053Z AUTO 06003KT 7SM CLR 07/06 A3012 RMK AO2 SLP202 T00720056
TAF
KSMF 
25nm E 
170520Z 1706/1806 VRB03KT P6SM FEW250 FM171200 18002KT 4SM BR SCT250 FM171300 15002KT 1/4SM FG SCT250 FM171800 34003KT P6SM SKC
KSUU 
29nm S 
170300Z 1703/1809 VRB06KT 9999 SCT200 QNH3005INS BECMG 1715/1716 01009KT 9999 SKC QNH3001INS BECMG 1722/1723 23009KT 9999 SKC QNH3000INS TX26/1723Z TN07/1713Z
NOTAMs
Click for the latest NOTAMs
NOTAMs are issued by the DoD/FAA and will open in a separate window not controlled by AirNav.

 

 
 

Would you like to see your business listed on this page?

 If your business provides an interesting product or service to pilots, flight crews, aircraft, or users of the G3 Ranch Airport, you should consider listing it here.  To start the listing process, click on the button below
 
Add a business
 

Other Pages about G3 Ranch Airport

Update a link
 
Copyright © AirNav, LLC. All rights reserved. Privacy Policy  Contact